createdAt,value
2018-01-18T00:01:51.592Z,41.90
2018-01-18T00:04:17.930Z,41.90
2018-01-18T00:06:44.371Z,42.10
2018-01-18T00:09:10.765Z,42.10
2018-01-18T00:11:37.454Z,42.00
2018-01-18T00:14:03.824Z,42.00
2018-01-18T00:16:31.235Z,42.20
2018-01-18T00:18:57.901Z,42.20
2018-01-18T00:21:24.544Z,41.90
2018-01-18T00:23:50.912Z,42.20
2018-01-18T00:26:17.277Z,42.10
2018-01-18T00:28:44.381Z,42.10
2018-01-18T00:31:10.751Z,41.70
2018-01-18T00:33:37.097Z,42.20
2018-01-18T00:36:03.787Z,42.00
2018-01-18T00:38:30.173Z,42.00
2018-01-18T00:40:56.548Z,42.00
2018-01-18T00:43:22.900Z,41.70
2018-01-18T00:45:49.303Z,41.80
2018-01-18T00:48:16.458Z,41.90
2018-01-18T00:50:43.580Z,42.10
2018-01-18T00:53:09.948Z,41.90
2018-01-18T00:55:36.298Z,41.90
2018-01-18T00:58:03.416Z,42.20
2018-01-18T01:00:29.758Z,42.00
2018-01-18T01:02:56.135Z,41.90
2018-01-18T01:05:22.565Z,42.20
2018-01-18T01:07:49.772Z,42.40
2018-01-18T01:10:16.600Z,42.30
2018-01-18T01:12:43.317Z,42.60
2018-01-18T01:15:10.549Z,42.70
2018-01-18T01:17:37.138Z,42.90
2018-01-18T01:20:03.582Z,42.60
2018-01-18T01:22:30.026Z,43.00
2018-01-18T01:24:56.809Z,43.20
2018-01-18T01:27:23.584Z,43.30
2018-01-18T01:29:50.729Z,43.40
2018-01-18T01:32:17.893Z,43.40
2018-01-18T01:34:45.292Z,43.50
2018-01-18T01:37:11.964Z,43.10
2018-01-18T01:39:38.329Z,43.60
2018-01-18T01:42:05.515Z,43.80
2018-01-18T01:44:31.903Z,43.40
2018-01-18T01:46:58.369Z,44.10
2018-01-18T01:49:25.569Z,43.80
2018-01-18T01:51:52.681Z,43.80
2018-01-18T01:54:19.117Z,43.50
2018-01-18T01:56:46.440Z,43.50
2018-01-18T01:59:13.200Z,43.60
2018-01-18T02:01:39.891Z,43.40
2018-01-18T02:04:06.279Z,43.60
2018-01-18T02:06:32.668Z,43.50
2018-01-18T02:08:59.040Z,43.50
2018-01-18T02:11:25.443Z,43.50
2018-01-18T02:13:51.848Z,43.50
2018-01-18T02:16:18.978Z,43.40
2018-01-18T02:18:45.372Z,43.30
2018-01-18T02:21:11.755Z,43.40
2018-01-18T02:23:38.125Z,43.60
2018-01-18T02:26:05.288Z,43.60
2018-01-18T02:28:32.408Z,43.60
2018-01-18T02:30:58.805Z,43.50
2018-01-18T02:33:25.206Z,43.40
2018-01-18T02:35:52.357Z,43.30
2018-01-18T02:38:19.502Z,43.60
2018-01-18T02:40:46.838Z,43.50
2018-01-18T02:43:13.190Z,43.90
2018-01-18T02:45:39.560Z,43.60
2018-01-18T02:48:06.735Z,43.60
2018-01-18T02:50:33.115Z,43.70
2018-01-18T02:52:59.807Z,43.70
2018-01-18T02:55:26.468Z,43.60
2018-01-18T02:57:52.865Z,43.50
2018-01-18T03:00:20.001Z,43.70
2018-01-18T03:02:46.363Z,43.60
2018-01-18T03:05:13.775Z,43.90
2018-01-18T03:07:40.176Z,44.10
2018-01-18T03:10:06.523Z,43.90
2018-01-18T03:12:32.858Z,44.00
2018-01-18T03:14:59.232Z,44.00
2018-01-18T03:17:25.615Z,43.90
2018-01-18T03:19:52.763Z,44.00
2018-01-18T03:22:20.184Z,44.00
2018-01-18T03:24:46.540Z,43.80
2018-01-18T03:27:13.942Z,44.60
2018-01-18T03:29:40.666Z,44.00
2018-01-18T03:32:07.766Z,44.00
2018-01-18T03:34:34.130Z,43.90
2018-01-18T03:37:00.537Z,44.30
2018-01-18T03:39:27.187Z,44.20
2018-01-18T03:41:53.828Z,44.20
2018-01-18T03:44:20.471Z,44.20
2018-01-18T03:46:47.027Z,44.30
2018-01-18T03:49:13.650Z,44.30
2018-01-18T03:51:40.040Z,44.20
2018-01-18T03:54:06.405Z,44.30
2018-01-18T03:56:32.817Z,45.10
2018-01-18T03:58:59.208Z,43.90
2018-01-18T04:01:25.774Z,44.30
2018-01-18T04:03:52.468Z,44.10
2018-01-18T04:06:19.139Z,44.40
2018-01-18T04:08:45.852Z,44.20
2018-01-18T04:11:12.584Z,44.30
2018-01-18T04:13:39.700Z,44.40
2018-01-18T04:16:06.103Z,44.40
2018-01-18T04:18:35.544Z,44.40
2018-01-18T04:21:01.916Z,44.20
2018-01-18T04:23:29.089Z,44.30
2018-01-18T04:25:55.468Z,44.30
2018-01-18T04:28:21.870Z,44.10
2018-01-18T04:30:48.316Z,44.40
2018-01-18T04:33:14.680Z,44.40
2018-01-18T04:35:41.065Z,44.40
2018-01-18T04:38:08.200Z,44.20
2018-01-18T04:40:34.587Z,44.30
2018-01-18T04:43:00.981Z,44.50
2018-01-18T04:45:27.325Z,44.30
2018-01-18T04:47:53.962Z,44.60
2018-01-18T04:50:20.725Z,44.50
2018-01-18T04:52:47.895Z,44.60
2018-01-18T04:55:14.332Z,44.60
2018-01-18T04:57:40.882Z,44.30
2018-01-18T05:00:07.551Z,44.50
2018-01-18T05:02:34.283Z,45.00
2018-01-18T05:05:00.870Z,44.60
2018-01-18T05:07:27.426Z,44.80
2018-01-18T05:09:54.565Z,43.70
2018-01-18T05:12:21.094Z,44.00
2018-01-18T05:14:47.884Z,43.80
2018-01-18T05:17:14.988Z,43.70
2018-01-18T05:19:41.356Z,43.70
2018-01-18T05:22:08.519Z,42.90
2018-01-18T05:24:35.645Z,42.50
2018-01-18T05:27:02.009Z,42.70
2018-01-18T05:29:29.112Z,42.30
2018-01-18T05:31:55.822Z,42.30
2018-01-18T05:34:22.232Z,42.40
2018-01-18T05:36:48.682Z,42.30
2018-01-18T05:39:15.379Z,41.90
2018-01-18T05:41:42.008Z,41.90
2018-01-18T05:44:08.799Z,41.80
2018-01-18T05:46:35.526Z,41.40
2018-01-18T05:49:02.209Z,41.10
2018-01-18T05:51:29.638Z,41.10
2018-01-18T05:53:56.372Z,41.30
2018-01-18T05:56:23.283Z,41.10
2018-01-18T05:58:49.927Z,40.70
2018-01-18T06:01:16.577Z,40.80
2018-01-18T06:03:43.328Z,40.50
2018-01-18T06:06:09.996Z,40.60
2018-01-18T06:08:36.660Z,40.40
2018-01-18T06:11:03.273Z,40.40
2018-01-18T06:13:29.916Z,40.50
2018-01-18T06:15:56.498Z,40.40
2018-01-18T06:18:23.165Z,40.20
2018-01-18T06:20:50.289Z,40.10
2018-01-18T06:23:16.702Z,40.40
2018-01-18T06:25:43.441Z,40.00
2018-01-18T06:28:10.151Z,40.10
2018-01-18T06:30:37.291Z,41.20
2018-01-18T06:33:04.633Z,41.20
2018-01-18T06:35:31.012Z,41.20
2018-01-18T06:37:57.467Z,42.00
2018-01-18T06:40:24.568Z,42.30
2018-01-18T06:42:50.947Z,42.00
2018-01-18T06:45:17.408Z,43.30
2018-01-18T06:47:43.813Z,43.60
2018-01-18T06:50:10.713Z,43.30
2018-01-18T06:52:37.174Z,42.80
2018-01-18T06:55:04.306Z,43.70
2018-01-18T06:57:30.725Z,43.50
2018-01-18T06:59:57.214Z,43.70
2018-01-18T07:02:24.388Z,43.30
2018-01-18T07:04:51.552Z,43.30
2018-01-18T07:07:18.703Z,45.10
2018-01-18T07:09:45.845Z,43.20
2018-01-18T07:12:12.930Z,43.30
2018-01-18T07:14:39.284Z,43.20
2018-01-18T07:17:05.946Z,43.70
2018-01-18T07:19:32.309Z,45.70
2018-01-18T07:21:58.832Z,44.40
2018-01-18T07:24:25.265Z,43.60
2018-01-18T07:26:51.694Z,42.90
2018-01-18T07:29:18.069Z,42.90
2018-01-18T07:31:44.876Z,43.40
2018-01-18T07:34:11.648Z,42.70
2018-01-18T07:36:38.377Z,42.80
2018-01-18T07:39:05.176Z,42.30
2018-01-18T07:41:31.904Z,43.30
2018-01-18T07:43:59.092Z,43.40
2018-01-18T07:46:25.503Z,43.40
2018-01-18T07:48:52.654Z,43.80
2018-01-18T07:51:19.040Z,43.80
2018-01-18T07:53:45.514Z,43.50
2018-01-18T07:56:12.693Z,44.00
2018-01-18T07:58:40.113Z,43.90
2018-01-18T08:01:06.465Z,44.00
2018-01-18T08:03:39.259Z,45.00
2018-01-18T08:06:05.968Z,44.30
2018-01-18T08:08:32.693Z,43.80
2018-01-18T08:10:59.397Z,43.60
2018-01-18T08:16:00.120Z,43.20
2018-01-18T08:18:26.431Z,43.20
2018-01-18T08:20:52.756Z,43.60
2018-01-18T08:23:19.153Z,42.90
2018-01-18T08:25:45.480Z,43.10
2018-01-18T08:28:11.797Z,42.30
2018-01-18T08:30:38.144Z,43.00
2018-01-18T08:33:04.470Z,43.10
2018-01-18T08:35:30.795Z,42.80
2018-01-18T08:37:57.128Z,41.80
2018-01-18T08:40:23.459Z,41.50
2018-01-18T08:42:49.807Z,42.00
2018-01-18T08:45:16.151Z,42.40
2018-01-18T08:47:42.518Z,42.00
2018-01-18T08:50:08.839Z,41.70
2018-01-18T08:52:35.389Z,41.90
2018-01-18T08:55:01.730Z,42.60
2018-01-18T08:57:28.127Z,43.40
2018-01-18T08:59:54.801Z,42.70
2018-01-18T09:02:21.132Z,43.00
2018-01-18T09:04:47.792Z,43.10
2018-01-18T09:07:14.130Z,43.40
2018-01-18T09:09:40.837Z,42.90
2018-01-18T09:12:07.160Z,43.10
2018-01-18T09:14:33.947Z,43.10
2018-01-18T09:17:00.271Z,42.90
2018-01-18T09:19:26.682Z,43.00
2018-01-18T09:21:53.008Z,42.70
2018-01-18T09:24:19.355Z,42.80
2018-01-18T09:26:45.693Z,42.90
2018-01-18T09:29:12.002Z,42.80
2018-01-18T09:31:39.082Z,42.40
2018-01-18T09:34:05.620Z,42.40
2018-01-18T09:36:31.963Z,42.40
2018-01-18T09:38:58.298Z,42.50
2018-01-18T09:41:25.560Z,42.70
2018-01-18T09:43:51.875Z,42.30
2018-01-18T09:46:18.200Z,42.00
2018-01-18T09:48:45.740Z,41.20
2018-01-18T09:51:12.076Z,41.50
2018-01-18T09:53:38.263Z,41.80
2018-01-18T09:56:04.595Z,42.20
2018-01-18T09:58:30.895Z,41.20
2018-01-18T10:00:57.227Z,40.90
2018-01-18T10:03:23.578Z,40.80
2018-01-18T10:05:50.673Z,40.70
2018-01-18T10:08:17.018Z,40.60
2018-01-18T10:10:43.340Z,40.50
2018-01-18T10:13:09.766Z,40.30
2018-01-18T10:15:36.664Z,40.50
2018-01-18T10:18:03.410Z,41.30
2018-01-18T10:20:30.013Z,40.50
2018-01-18T10:22:56.986Z,40.60
2018-01-18T10:25:23.714Z,41.20
2018-01-18T10:27:50.698Z,41.80
2018-01-18T10:30:17.471Z,41.20
2018-01-18T10:32:45.025Z,40.90
2018-01-18T10:35:12.574Z,40.60
2018-01-18T10:37:39.124Z,40.70
2018-01-18T10:40:05.933Z,40.50
2018-01-18T10:42:32.749Z,40.50
2018-01-18T10:44:59.446Z,40.80
2018-01-18T10:47:26.383Z,40.70
2018-01-18T10:49:53.145Z,41.20
2018-01-18T10:52:19.989Z,41.20
2018-01-18T10:54:46.728Z,41.10
2018-01-18T10:57:13.497Z,41.00
2018-01-18T10:59:40.228Z,41.40
2018-01-18T11:02:07.075Z,41.60
2018-01-18T11:04:33.977Z,41.50
2018-01-18T11:07:01.484Z,41.60
2018-01-18T11:09:28.131Z,41.60
2018-01-18T11:11:54.843Z,41.10
2018-01-18T11:14:21.630Z,40.90
2018-01-18T11:16:48.581Z,40.60
2018-01-18T11:19:15.313Z,40.80
2018-01-18T11:21:42.173Z,40.90
2018-01-18T11:24:08.816Z,41.20
2018-01-18T11:26:35.476Z,40.90
2018-01-18T11:29:02.192Z,40.50
2018-01-18T11:31:28.949Z,40.60
2018-01-18T11:33:55.853Z,40.90
2018-01-18T11:36:22.543Z,41.60
2018-01-18T11:38:49.147Z,41.30
2018-01-18T11:41:15.733Z,41.10
2018-01-18T11:43:42.312Z,41.30
2018-01-18T11:46:09.816Z,41.30
2018-01-18T11:48:36.527Z,41.50
2018-01-18T11:51:03.309Z,41.00
2018-01-18T11:53:30.073Z,41.00
2018-01-18T11:55:56.670Z,41.20
2018-01-18T11:58:23.459Z,40.90
2018-01-18T12:00:50.300Z,41.70
2018-01-18T12:03:16.940Z,41.10
2018-01-18T12:05:43.613Z,41.40
2018-01-18T12:08:10.288Z,41.10
2018-01-18T12:10:37.073Z,41.00
2018-01-18T12:13:03.776Z,41.20
2018-01-18T12:15:30.616Z,40.60
2018-01-18T12:17:58.031Z,40.70
2018-01-18T12:20:24.894Z,40.90
2018-01-18T12:22:51.520Z,40.60
2018-01-18T12:25:18.264Z,40.40
2018-01-18T12:27:44.843Z,40.50
2018-01-18T12:30:12.006Z,40.70
2018-01-18T12:32:39.123Z,40.80
2018-01-18T12:35:05.493Z,40.90
2018-01-18T12:37:32.593Z,40.30
2018-01-18T12:39:58.978Z,40.40
2018-01-18T12:42:25.335Z,40.20
2018-01-18T12:44:52.694Z,40.70
2018-01-18T12:47:19.805Z,40.80
2018-01-18T12:49:46.164Z,40.80
2018-01-18T12:52:12.642Z,41.00
2018-01-18T12:54:39.354Z,41.30
2018-01-18T12:57:06.923Z,41.20
2018-01-18T12:59:34.022Z,41.40
2018-01-18T13:02:00.508Z,41.40
2018-01-18T13:04:26.892Z,41.00
2018-01-18T13:06:53.575Z,41.20
2018-01-18T13:09:20.503Z,41.20
2018-01-18T13:11:47.232Z,41.10
2018-01-18T13:14:13.969Z,41.40
2018-01-18T13:16:40.653Z,41.50
2018-01-18T13:19:07.194Z,42.20
2018-01-18T13:21:33.854Z,42.80
2018-01-18T13:24:00.475Z,43.20
2018-01-18T13:26:27.233Z,43.50
2018-01-18T13:28:53.965Z,43.40
2018-01-18T13:31:20.916Z,42.90
2018-01-18T13:33:47.798Z,42.30
2018-01-18T13:36:15.445Z,41.50
2018-01-18T13:38:42.393Z,41.40
2018-01-18T13:41:09.348Z,41.60
2018-01-18T13:43:36.114Z,41.50
2018-01-18T13:46:03.269Z,41.50
2018-01-18T13:48:30.373Z,41.30
2018-01-18T13:50:57.170Z,41.30
2018-01-18T13:53:24.330Z,41.60
2018-01-18T13:55:51.298Z,41.20
2018-01-18T13:58:18.195Z,40.90
2018-01-18T14:00:45.256Z,40.80
2018-01-18T14:03:12.623Z,40.90
2018-01-18T14:05:39.710Z,41.70
2018-01-18T14:08:06.061Z,40.80
2018-01-18T14:10:32.571Z,40.80
2018-01-18T14:12:59.616Z,41.10
2018-01-18T14:15:26.700Z,41.20
2018-01-18T14:17:53.905Z,41.10
2018-01-18T14:20:20.272Z,41.30
2018-01-18T14:22:47.366Z,41.50
2018-01-18T14:25:13.683Z,41.40
2018-01-18T14:27:40.862Z,39.30
2018-01-18T14:30:07.251Z,39.40
2018-01-18T14:32:34.308Z,42.40
2018-01-18T14:35:01.368Z,40.60
2018-01-18T14:37:28.429Z,39.70
2018-01-18T14:39:54.808Z,39.80
2018-01-18T14:42:21.220Z,41.30
2018-01-18T14:44:47.557Z,38.60
2018-01-18T14:47:13.909Z,39.60
2018-01-18T14:49:40.651Z,40.10
2018-01-18T14:52:07.348Z,40.20
2018-01-18T14:54:34.500Z,41.20
2018-01-18T14:57:01.559Z,41.60
2018-01-18T14:59:28.612Z,41.50
2018-01-18T15:01:55.716Z,41.70
2018-01-18T15:04:22.066Z,41.80
2018-01-18T15:06:48.408Z,42.10
2018-01-18T15:09:14.738Z,42.40
2018-01-18T15:11:41.289Z,43.50
2018-01-18T15:14:07.951Z,44.10
2018-01-18T15:16:35.053Z,45.00
2018-01-18T15:19:01.520Z,45.40
2018-01-18T15:24:07.763Z,44.60
2018-01-18T15:26:34.099Z,44.40
2018-01-18T15:34:55.791Z,45.80
2018-01-18T15:37:22.152Z,46.00
2018-01-18T15:39:54.404Z,47.40
2018-01-18T15:44:54.426Z,47.80
2018-01-18T15:47:21.243Z,48.10
2018-01-18T15:49:47.843Z,48.20
2018-01-18T15:52:15.066Z,48.80
2018-01-18T15:54:41.810Z,48.80
2018-01-18T15:57:08.713Z,48.90
2018-01-18T15:59:35.351Z,49.50
2018-01-18T16:02:02.021Z,49.70
2018-01-18T16:04:28.772Z,49.80
2018-01-18T16:06:55.540Z,50.10
2018-01-18T16:09:22.532Z,49.50
2018-01-18T16:11:49.706Z,48.40
2018-01-18T16:14:16.030Z,48.10
2018-01-18T16:22:05.205Z,48.10
2018-01-18T16:24:31.584Z,47.70
2018-01-18T16:26:57.967Z,48.00
2018-01-18T16:29:24.373Z,47.30
2018-01-18T16:31:50.785Z,47.20
2018-01-18T16:34:17.138Z,47.40
2018-01-18T16:36:43.477Z,47.30
2018-01-18T16:39:09.810Z,46.90
2018-01-18T16:41:36.160Z,46.70
2018-01-18T16:44:29.582Z,46.90
2018-01-18T16:46:55.925Z,46.80
2018-01-18T16:49:22.762Z,46.90
2018-01-18T16:51:49.152Z,46.70
2018-01-18T16:54:15.513Z,42.50
2018-01-18T16:56:41.866Z,44.60
2018-01-18T16:59:09.031Z,45.40
2018-01-18T17:01:36.226Z,40.10
2018-01-18T17:04:02.673Z,40.40
2018-01-18T17:06:29.133Z,41.20
2018-01-18T17:08:55.500Z,41.20
2018-01-18T17:11:22.937Z,42.90
2018-01-18T17:13:49.764Z,42.90
2018-01-18T17:16:16.085Z,42.30
2018-01-18T17:18:42.748Z,41.90
2018-01-18T17:21:09.119Z,42.80
2018-01-18T17:23:36.549Z,45.30
2018-01-18T17:26:03.519Z,45.40
2018-01-18T17:28:30.578Z,46.00
2018-01-18T17:30:57.800Z,45.80
2018-01-18T17:33:24.248Z,45.60
2018-01-18T17:35:51.035Z,46.40
2018-01-18T17:38:18.184Z,45.80
2018-01-18T17:40:45.728Z,46.00
2018-01-18T17:43:12.672Z,45.80
2018-01-18T17:45:39.422Z,46.10
2018-01-18T17:48:06.137Z,46.20
2018-01-18T17:50:33.576Z,46.30
2018-01-18T17:53:00.442Z,46.30
2018-01-18T17:55:26.963Z,46.40
2018-01-18T17:57:53.429Z,46.60
2018-01-18T18:00:20.237Z,46.50
2018-01-18T18:02:47.004Z,46.90
2018-01-18T18:05:13.380Z,46.90
2018-01-18T18:07:40.117Z,46.90
2018-01-18T18:10:06.768Z,47.90
2018-01-18T18:12:33.618Z,48.50
2018-01-18T18:14:59.958Z,49.40
2018-01-18T18:17:26.349Z,50.00
2018-01-18T18:19:52.675Z,50.20
2018-01-18T18:22:19.004Z,50.40
2018-01-18T18:24:45.676Z,50.60
2018-01-18T18:27:12.456Z,50.60
2018-01-18T18:29:39.119Z,50.40
2018-01-18T18:32:06.659Z,51.80
2018-01-18T18:34:33.313Z,51.30
2018-01-18T18:37:00.077Z,51.10
2018-01-18T18:39:27.534Z,49.20
2018-01-18T18:41:54.214Z,49.30
2018-01-18T18:44:20.904Z,48.80
2018-01-18T18:46:48.273Z,48.60
2018-01-18T18:49:15.155Z,48.70
2018-01-18T18:51:41.965Z,48.30
2018-01-18T18:54:08.628Z,48.30
2018-01-18T18:56:36.064Z,48.40
2018-01-18T18:59:02.935Z,48.50
2018-01-18T19:01:30.490Z,48.40
2018-01-18T19:03:57.186Z,48.60
2018-01-18T19:06:23.825Z,48.60
2018-01-18T19:08:50.615Z,48.50
2018-01-18T19:11:17.400Z,48.40
2018-01-18T19:13:44.034Z,48.50
2018-01-18T19:16:11.662Z,48.50
2018-01-18T19:18:38.534Z,47.80
2018-01-18T19:21:06.064Z,48.60
2018-01-18T19:23:32.749Z,48.10
2018-01-18T19:26:00.978Z,48.50
2018-01-18T19:28:27.653Z,48.50
2018-01-18T19:30:54.293Z,48.60
2018-01-18T19:33:20.961Z,48.70
2018-01-18T19:35:48.652Z,49.10
2018-01-18T19:38:15.432Z,48.90
2018-01-18T19:40:43.163Z,49.00
2018-01-18T19:43:09.840Z,49.10
2018-01-18T19:45:36.695Z,48.80
2018-01-18T19:48:03.359Z,42.00
2018-01-18T19:50:30.178Z,45.10
2018-01-18T19:52:56.937Z,46.70
2018-01-18T19:55:23.702Z,48.50
2018-01-18T19:57:50.736Z,49.40
2018-01-18T20:00:17.597Z,48.80
2018-01-18T20:02:44.410Z,48.80
2018-01-18T20:05:11.372Z,49.20
2018-01-18T20:07:38.141Z,49.30
2018-01-18T20:10:05.140Z,49.40
2018-01-18T20:12:32.038Z,49.90
2018-01-18T20:15:00.194Z,50.50
2018-01-18T20:17:27.194Z,52.00
2018-01-18T20:19:55.052Z,53.30
2018-01-18T20:22:35.899Z,53.50
2018-01-18T20:25:03.985Z,55.70
2018-01-18T20:27:30.877Z,55.70
2018-01-18T20:29:58.334Z,56.30
2018-01-18T20:32:25.801Z,56.60
2018-01-18T20:34:53.261Z,57.60
2018-01-18T20:37:20.854Z,55.90
2018-01-18T20:39:47.525Z,55.80
2018-01-18T20:42:14.201Z,55.60
2018-01-18T20:44:40.886Z,55.60
2018-01-18T20:47:08.274Z,55.80
2018-01-18T20:49:34.957Z,55.60
2018-01-18T20:52:02.605Z,55.00
2018-01-18T20:54:30.297Z,54.80
2018-01-18T20:56:57.777Z,54.20
2018-01-18T20:59:24.431Z,54.20
2018-01-18T21:01:51.023Z,53.90
2018-01-18T21:04:17.688Z,53.90
2018-01-18T21:06:45.109Z,53.90
2018-01-18T21:09:11.752Z,53.70
2018-01-18T21:11:38.613Z,54.10
2018-01-18T21:14:05.340Z,54.60
2018-01-18T21:16:32.090Z,53.90
2018-01-18T21:18:58.919Z,54.30
2018-01-18T21:21:26.329Z,53.80
2018-01-18T21:23:52.946Z,53.90
2018-01-18T21:26:19.844Z,53.80
2018-01-18T21:28:46.550Z,53.60
2018-01-18T21:31:13.379Z,53.30
2018-01-18T21:33:40.088Z,53.40
2018-01-18T21:36:06.666Z,52.90
2018-01-18T21:38:33.716Z,52.90
2018-01-18T21:41:00.378Z,52.80
2018-01-18T21:43:27.077Z,52.80
2018-01-18T21:45:53.652Z,53.00
2018-01-18T21:48:20.328Z,52.90
2018-01-18T21:50:47.697Z,53.50
2018-01-18T21:53:15.046Z,53.80
2018-01-18T21:55:41.668Z,53.60
2018-01-18T21:58:08.348Z,54.00
2018-01-18T22:00:35.979Z,54.70
2018-01-18T22:03:02.831Z,54.40
2018-01-18T22:05:29.585Z,54.50
2018-01-18T22:07:56.313Z,55.00
2018-01-18T22:10:23.057Z,55.30
2018-01-18T22:12:49.816Z,55.30
2018-01-18T22:15:16.556Z,55.70
2018-01-18T22:17:43.315Z,56.00
2018-01-18T22:20:10.365Z,56.10
2018-01-18T22:22:37.194Z,56.00
2018-01-18T22:25:03.846Z,56.20
2018-01-18T22:27:30.583Z,56.30
2018-01-18T22:29:57.196Z,50.60
2018-01-18T22:32:24.237Z,54.20
2018-01-18T22:34:51.060Z,54.20
2018-01-18T22:37:18.501Z,54.30
2018-01-18T22:39:45.337Z,54.00
2018-01-18T22:42:12.103Z,54.20
2018-01-18T22:44:38.734Z,54.00
2018-01-18T22:47:05.482Z,54.20
2018-01-18T22:49:32.212Z,54.30
2018-01-18T22:51:58.968Z,54.20
2018-01-18T22:54:25.720Z,54.40
2018-01-18T22:56:52.560Z,54.50
2018-01-18T22:59:19.315Z,54.80
2018-01-18T23:01:53.020Z,54.80
2018-01-18T23:04:19.870Z,55.20
2018-01-18T23:06:46.609Z,55.50
2018-01-18T23:09:13.344Z,55.60
2018-01-18T23:11:39.997Z,55.60
2018-01-18T23:14:06.749Z,55.50
2018-01-18T23:16:33.584Z,55.40
2018-01-18T23:19:00.332Z,55.50
2018-01-18T23:21:27.075Z,55.70
2018-01-18T23:23:53.915Z,55.20
2018-01-18T23:26:20.662Z,55.70
2018-01-18T23:28:47.513Z,56.20
2018-01-18T23:31:14.262Z,55.10
2018-01-18T23:33:41.113Z,55.40
2018-01-18T23:36:07.959Z,54.70
2018-01-18T23:38:34.760Z,54.60
2018-01-18T23:41:01.472Z,54.70
2018-01-18T23:43:28.299Z,54.50
2018-01-18T23:45:55.143Z,54.40
2018-01-18T23:48:21.881Z,54.60
2018-01-18T23:50:48.632Z,54.50
2018-01-18T23:53:15.375Z,54.30
2018-01-18T23:55:42.131Z,54.30
2018-01-18T23:58:08.836Z,54.10
